createdAt,value
2018-02-14T00:00:20.919Z,32.77
2018-02-14T00:02:48.813Z,27.10
2018-02-14T00:05:16.722Z,27.80
2018-02-14T00:07:44.576Z,33.80
2018-02-14T00:10:12.477Z,31.00
2018-02-14T00:12:40.356Z,34.43
2018-02-14T00:15:08.219Z,36.37
2018-02-14T00:17:36.146Z,31.73
2018-02-14T00:20:04.057Z,30.73
2018-02-14T00:22:32.016Z,39.50
2018-02-14T00:24:59.933Z,30.67
2018-02-14T00:27:28.746Z,29.97
2018-02-14T00:29:56.647Z,32.10
2018-02-14T00:32:24.564Z,31.27
2018-02-14T00:34:52.512Z,31.10
2018-02-14T00:37:20.394Z,25.57
2018-02-14T00:39:48.256Z,34.13
2018-02-14T00:42:16.145Z,30.80
2018-02-14T00:44:44.033Z,36.47
2018-02-14T00:47:11.904Z,30.67
2018-02-14T00:49:39.808Z,34.50
2018-02-14T00:52:07.697Z,34.40
2018-02-14T00:54:35.562Z,28.33
2018-02-14T00:57:03.496Z,32.27
2018-02-14T00:59:31.356Z,35.97
2018-02-14T01:01:59.269Z,37.30
2018-02-14T01:04:27.191Z,39.93
2018-02-14T01:06:55.179Z,33.90
2018-02-14T01:09:23.058Z,40.17
2018-02-14T01:11:50.948Z,34.63
2018-02-14T01:14:18.948Z,37.33
2018-02-14T01:16:46.816Z,32.40
2018-02-14T01:19:16.594Z,37.70
2018-02-14T01:21:49.592Z,38.63
2018-02-14T01:27:15.880Z,36.20
2018-02-14T01:32:41.431Z,39.27
2018-02-14T01:35:09.271Z,35.23
2018-02-14T01:37:37.133Z,32.60
2018-02-14T01:40:05.091Z,37.03
2018-02-14T01:42:32.939Z,31.60
2018-02-14T01:45:00.782Z,34.63
2018-02-14T01:47:28.647Z,37.80
2018-02-14T01:49:56.483Z,34.50
2018-02-14T01:52:24.544Z,33.33
2018-02-14T01:54:52.399Z,30.23
2018-02-14T01:57:20.279Z,39.37
2018-02-14T01:59:48.126Z,38.03
2018-02-14T02:02:15.991Z,34.60
2018-02-14T02:04:43.939Z,34.40
2018-02-14T02:07:11.844Z,32.03
2018-02-14T02:09:39.941Z,34.60
2018-02-14T02:12:07.826Z,35.50
2018-02-14T02:14:35.686Z,32.10
2018-02-14T02:17:03.542Z,35.20
2018-02-14T02:19:31.586Z,34.33
2018-02-14T02:21:59.549Z,33.50
2018-02-14T02:24:27.377Z,32.17
2018-02-14T02:26:55.228Z,33.97
2018-02-14T02:29:23.106Z,37.57
2018-02-14T02:31:50.996Z,37.20
2018-02-14T02:34:18.851Z,39.13
2018-02-14T02:36:46.767Z,40.83
2018-02-14T02:39:20.895Z,37.60
2018-02-14T02:41:48.795Z,42.73
2018-02-14T02:44:16.679Z,33.70
2018-02-14T02:46:44.532Z,38.50
2018-02-14T02:49:12.427Z,36.20
2018-02-14T02:51:40.274Z,32.63
2018-02-14T02:54:08.158Z,41.00
2018-02-14T02:56:35.995Z,40.73
2018-02-14T02:59:03.860Z,32.00
2018-02-14T03:01:31.727Z,37.03
2018-02-14T03:03:59.578Z,30.33
2018-02-14T03:06:27.450Z,39.13
2018-02-14T03:08:55.386Z,36.87
2018-02-14T03:11:23.307Z,38.77
2018-02-14T03:13:51.142Z,37.10
2018-02-14T03:16:18.976Z,34.13
2018-02-14T03:18:46.842Z,38.70
2018-02-14T03:21:14.674Z,39.07
2018-02-14T03:23:42.535Z,36.50
2018-02-14T03:26:10.378Z,37.23
2018-02-14T03:28:38.244Z,31.93
2018-02-14T03:31:06.113Z,30.87
2018-02-14T03:33:33.942Z,36.83
2018-02-14T03:36:01.810Z,35.10
2018-02-14T03:38:29.692Z,36.97
2018-02-14T03:40:57.531Z,31.77
2018-02-14T03:43:25.508Z,39.23
2018-02-14T03:45:53.356Z,33.67
2018-02-14T03:48:21.203Z,36.70
2018-02-14T03:50:49.074Z,37.80
2018-02-14T03:53:16.932Z,35.83
2018-02-14T03:55:44.765Z,42.90
2018-02-14T03:58:12.643Z,37.80
2018-02-14T04:00:40.503Z,38.10
2018-02-14T04:03:08.347Z,38.93
2018-02-14T04:05:36.263Z,38.40
2018-02-14T04:08:04.114Z,38.07
2018-02-14T04:10:31.959Z,37.93
2018-02-14T04:12:59.822Z,39.10
2018-02-14T04:15:27.675Z,31.30
2018-02-14T04:17:55.520Z,37.73
2018-02-14T04:20:23.387Z,34.80
2018-02-14T04:22:51.245Z,39.67
2018-02-14T04:25:19.122Z,41.07
2018-02-14T04:27:46.995Z,41.43
2018-02-14T04:30:16.839Z,41.03
2018-02-14T04:32:44.675Z,47.50
2018-02-14T04:35:12.538Z,41.80
2018-02-14T04:37:40.392Z,36.43
2018-02-14T04:40:08.231Z,37.50
2018-02-14T04:42:36.151Z,36.83
2018-02-14T04:45:04.012Z,36.90
2018-02-14T04:47:31.844Z,39.00
2018-02-14T04:49:59.725Z,43.50
2018-02-14T04:52:27.592Z,40.63
2018-02-14T04:54:55.436Z,41.90
2018-02-14T04:57:23.302Z,37.10
2018-02-14T04:59:51.234Z,37.23
2018-02-14T05:02:19.106Z,35.27
2018-02-14T05:04:46.962Z,40.70
2018-02-14T05:07:14.832Z,38.10
2018-02-14T05:09:42.680Z,37.90
2018-02-14T05:12:10.557Z,40.50
2018-02-14T05:14:38.415Z,34.40
2018-02-14T05:17:06.246Z,38.90
2018-02-14T05:19:34.123Z,35.33
2018-02-14T05:22:01.971Z,43.63
2018-02-14T05:24:29.804Z,44.20
2018-02-14T05:26:57.671Z,44.80
2018-02-14T05:29:25.527Z,43.40
2018-02-14T05:31:53.362Z,42.10
2018-02-14T05:34:21.243Z,52.27
2018-02-14T05:36:49.106Z,52.63
2018-02-14T05:39:16.951Z,45.43
2018-02-14T05:41:44.824Z,41.80
2018-02-14T05:44:12.759Z,45.00
2018-02-14T05:46:40.628Z,51.23
2018-02-14T05:49:08.508Z,43.70
2018-02-14T05:51:36.365Z,52.73
2018-02-14T05:54:04.232Z,44.47
2018-02-14T05:56:32.103Z,50.17
2018-02-14T05:58:59.952Z,41.60
2018-02-14T06:01:27.791Z,37.07
2018-02-14T06:03:55.712Z,41.97
2018-02-14T06:06:23.642Z,38.30
2018-02-14T06:08:51.494Z,43.07
2018-02-14T06:11:19.363Z,48.07
2018-02-14T06:13:47.219Z,42.90
2018-02-14T06:16:15.087Z,49.10
2018-02-14T06:18:42.968Z,47.07
2018-02-14T06:21:10.827Z,49.90
2018-02-14T06:23:38.682Z,47.67
2018-02-14T06:26:06.556Z,47.03
2018-02-14T06:28:34.394Z,50.27
2018-02-14T06:31:02.235Z,47.90
2018-02-14T06:33:30.147Z,47.43
2018-02-14T06:35:57.992Z,47.80
2018-02-14T06:38:25.843Z,46.77
2018-02-14T06:40:53.743Z,45.63
2018-02-14T06:43:21.580Z,54.23
2018-02-14T06:45:49.433Z,47.37
2018-02-14T06:48:17.294Z,68.70
2018-02-14T06:50:45.134Z,49.90
2018-02-14T06:53:13.027Z,46.50
2018-02-14T06:55:40.954Z,47.43
2018-02-14T06:58:08.799Z,48.47
2018-02-14T07:00:36.660Z,57.20
2018-02-14T07:03:04.531Z,49.33
2018-02-14T07:05:32.422Z,56.87
2018-02-14T07:08:00.291Z,48.10
2018-02-14T07:10:28.172Z,53.03
2018-02-14T07:12:56.043Z,58.13
2018-02-14T07:15:23.966Z,52.40
2018-02-14T07:17:51.828Z,47.20
2018-02-14T07:20:19.693Z,58.27
2018-02-14T07:22:47.623Z,50.23
2018-02-14T07:25:15.549Z,56.17
2018-02-14T07:27:43.431Z,51.33
2018-02-14T07:30:11.348Z,48.97
2018-02-14T07:32:39.263Z,50.50
2018-02-14T07:35:07.139Z,47.67
2018-02-14T07:37:35.270Z,53.43
2018-02-14T07:40:03.168Z,48.70
2018-02-14T07:42:31.059Z,51.67
2018-02-14T07:44:58.907Z,45.10
2018-02-14T07:47:28.172Z,51.93
2018-02-14T07:49:56.045Z,58.20
2018-02-14T07:52:23.899Z,56.90
2018-02-14T07:54:51.762Z,49.83
2018-02-14T07:57:19.656Z,53.13
2018-02-14T07:59:47.504Z,48.80
2018-02-14T08:02:15.398Z,55.03
2018-02-14T08:04:43.239Z,63.57
2018-02-14T08:07:11.160Z,55.10
2018-02-14T08:09:39.038Z,59.80
2018-02-14T08:12:06.899Z,53.03
2018-02-14T08:14:34.751Z,58.50
2018-02-14T08:17:02.670Z,49.07
2018-02-14T08:19:30.517Z,54.13
2018-02-14T08:21:58.382Z,54.80
2018-02-14T08:24:26.255Z,48.67
2018-02-14T08:26:54.155Z,52.63
2018-02-14T08:29:22.049Z,51.80
2018-02-14T08:31:50.022Z,55.10
2018-02-14T08:34:17.924Z,45.50
2018-02-14T08:36:45.792Z,45.00
2018-02-14T08:39:13.708Z,50.60
2018-02-14T08:41:41.555Z,49.20
2018-02-14T08:44:09.414Z,55.03
2018-02-14T08:46:37.310Z,59.90
2018-02-14T08:49:05.155Z,52.20
2018-02-14T08:51:33.051Z,58.83
2018-02-14T08:54:01.037Z,49.30
2018-02-14T08:56:28.917Z,54.80
2018-02-14T08:58:56.775Z,53.40
2018-02-14T09:01:24.650Z,49.30
2018-02-14T09:03:52.504Z,49.23
2018-02-14T09:06:20.424Z,50.60
2018-02-14T09:08:48.417Z,49.27
2018-02-14T09:11:16.262Z,51.90
2018-02-14T09:13:44.114Z,52.80
2018-02-14T09:16:11.990Z,56.93
2018-02-14T09:18:39.838Z,50.37
2018-02-14T09:21:07.687Z,50.23
2018-02-14T09:23:35.568Z,51.03
2018-02-14T09:26:03.422Z,53.20
2018-02-14T09:28:31.267Z,44.43
2018-02-14T09:30:59.154Z,51.03
2018-02-14T09:33:27.023Z,50.80
2018-02-14T09:35:54.879Z,48.97
2018-02-14T09:38:22.771Z,57.80
2018-02-14T09:40:50.624Z,52.57
2018-02-14T09:43:18.526Z,48.70
2018-02-14T09:45:46.406Z,49.57
2018-02-14T09:48:14.254Z,43.70
2018-02-14T09:50:42.138Z,40.83
2018-02-14T09:53:09.998Z,47.40
2018-02-14T09:55:37.834Z,37.57
2018-02-14T09:58:05.729Z,45.23
2018-02-14T10:00:33.626Z,45.23
2018-02-14T10:03:01.493Z,47.53
2018-02-14T10:05:29.351Z,44.53
2018-02-14T10:07:57.228Z,40.93
2018-02-14T10:10:25.118Z,46.00
2018-02-14T10:12:52.971Z,37.50
2018-02-14T10:15:20.843Z,47.90
2018-02-14T10:17:48.781Z,43.30
2018-02-14T10:20:16.634Z,49.43
2018-02-14T10:22:44.555Z,43.00
2018-02-14T10:25:12.411Z,46.93
2018-02-14T10:27:40.268Z,49.13
2018-02-14T10:30:08.221Z,42.00
2018-02-14T10:32:36.088Z,47.60
2018-02-14T10:35:03.998Z,42.00
2018-02-14T10:37:31.855Z,52.20
2018-02-14T10:39:59.716Z,49.00
2018-02-14T10:42:27.582Z,44.80
2018-02-14T10:44:55.453Z,53.57
2018-02-14T10:47:23.312Z,45.33
2018-02-14T10:49:51.174Z,50.80
2018-02-14T10:52:19.051Z,49.20
2018-02-14T10:54:46.914Z,46.50
2018-02-14T10:57:14.748Z,51.50
2018-02-14T10:59:42.644Z,44.50
2018-02-14T11:02:10.520Z,48.33
2018-02-14T11:04:44.711Z,53.83
2018-02-14T11:07:17.579Z,53.40
2018-02-14T11:09:45.463Z,40.37
2018-02-14T11:12:13.357Z,51.10
2018-02-14T11:14:41.191Z,48.37
2018-02-14T11:17:09.060Z,42.63
2018-02-14T11:19:36.900Z,47.73
2018-02-14T11:22:04.780Z,41.33
2018-02-14T11:24:32.660Z,44.40
2018-02-14T11:27:00.500Z,47.87
2018-02-14T11:29:28.364Z,43.47
2018-02-14T11:31:56.229Z,51.50
2018-02-14T11:34:24.085Z,36.37
2018-02-14T11:36:51.932Z,40.10
2018-02-14T11:39:19.798Z,46.10
2018-02-14T11:41:47.640Z,45.20
2018-02-14T11:44:15.487Z,39.90
2018-02-14T11:46:43.358Z,41.90
2018-02-14T11:49:11.231Z,35.00
2018-02-14T11:51:39.113Z,45.63
2018-02-14T11:54:06.975Z,38.60
2018-02-14T11:56:34.837Z,48.20
2018-02-14T11:59:02.688Z,60.00
2018-02-14T12:01:30.558Z,28.73
2018-02-14T12:03:58.401Z,40.33
2018-02-14T12:06:26.293Z,43.33
2018-02-14T12:08:54.171Z,34.80
2018-02-14T12:11:22.024Z,39.10
2018-02-14T12:13:49.934Z,29.37
2018-02-14T12:16:17.779Z,35.10
2018-02-14T12:18:45.676Z,36.20
2018-02-14T12:21:13.548Z,31.17
2018-02-14T12:23:41.397Z,34.90
2018-02-14T12:26:09.271Z,29.00
2018-02-14T12:28:37.120Z,35.97
2018-02-14T12:31:04.983Z,40.17
2018-02-14T12:33:32.841Z,37.97
2018-02-14T12:36:00.720Z,35.40
2018-02-14T12:38:28.593Z,32.60
2018-02-14T12:40:56.460Z,24.10
2018-02-14T12:43:24.315Z,16.63
2018-02-14T12:45:52.205Z,26.10
2018-02-14T12:48:20.063Z,16.90
2018-02-14T12:50:47.635Z,28.57
2018-02-14T12:53:13.887Z,29.73
2018-02-14T12:55:41.776Z,25.90
2018-02-14T12:58:09.610Z,29.27
2018-02-14T13:00:37.499Z,31.07
2018-02-14T13:03:05.364Z,15.30
2018-02-14T13:05:33.208Z,15.60
2018-02-14T13:08:01.071Z,22.70
2018-02-14T13:10:28.930Z,23.57
2018-02-14T13:12:56.767Z,15.80
2018-02-14T13:15:24.740Z,22.47
2018-02-14T13:17:52.613Z,24.80
2018-02-14T13:20:20.555Z,30.97
2018-02-14T13:22:48.436Z,25.80
2018-02-14T13:25:16.339Z,34.80
2018-02-14T13:27:44.254Z,33.10
2018-02-14T13:30:12.125Z,38.90
2018-02-14T13:32:39.964Z,27.10
2018-02-14T13:35:07.858Z,36.60
2018-02-14T13:37:35.794Z,31.83
2018-02-14T13:40:03.649Z,42.30
2018-02-14T13:42:31.490Z,35.90
2018-02-14T13:44:59.518Z,31.27
2018-02-14T13:47:27.417Z,40.87
2018-02-14T13:49:55.347Z,35.13
2018-02-14T13:52:23.227Z,40.40
2018-02-14T13:54:51.110Z,33.13
2018-02-14T13:57:19.052Z,33.47
2018-02-14T13:59:46.923Z,36.23
2018-02-14T14:02:14.782Z,41.67
2018-02-14T14:04:42.673Z,37.83
2018-02-14T14:07:10.721Z,38.37
2018-02-14T14:09:38.575Z,41.33
2018-02-14T14:12:06.452Z,39.43
2018-02-14T14:14:34.320Z,42.40
2018-02-14T14:17:02.156Z,51.87
2018-02-14T14:19:30.016Z,33.63
2018-02-14T14:21:57.884Z,32.60
2018-02-14T14:24:25.794Z,37.53
2018-02-14T14:26:53.679Z,26.07
2018-02-14T14:29:21.551Z,31.67
2018-02-14T14:31:49.415Z,36.20
2018-02-14T14:34:17.295Z,36.20
2018-02-14T14:36:45.450Z,35.40
2018-02-14T14:39:13.408Z,34.73
2018-02-14T14:41:41.282Z,32.30
2018-02-14T14:44:09.272Z,36.17
2018-02-14T14:46:37.134Z,38.10
2018-02-14T14:49:05.046Z,34.60
2018-02-14T14:51:32.952Z,31.90
2018-02-14T14:54:00.810Z,40.77
2018-02-14T14:56:28.664Z,39.17
2018-02-14T14:58:56.587Z,43.57
2018-02-14T15:01:24.432Z,35.63
2018-02-14T15:03:52.591Z,43.40
2018-02-14T15:06:20.480Z,42.00
2018-02-14T15:08:48.339Z,39.10
2018-02-14T15:11:16.274Z,38.53
2018-02-14T15:13:44.111Z,37.03
2018-02-14T15:16:11.976Z,41.77
2018-02-14T15:18:39.823Z,42.77
2018-02-14T15:21:07.671Z,46.80
2018-02-14T15:23:35.575Z,42.63
2018-02-14T15:26:03.440Z,47.20
2018-02-14T15:28:31.297Z,40.83
2018-02-14T15:30:59.127Z,44.80
2018-02-14T15:33:27.008Z,38.70
2018-02-14T15:35:54.843Z,52.20
2018-02-14T15:38:22.675Z,45.20
2018-02-14T15:40:50.531Z,46.83
2018-02-14T15:43:18.371Z,42.90
2018-02-14T15:45:46.203Z,45.57
2018-02-14T15:48:14.071Z,49.10
2018-02-14T15:50:41.915Z,48.90
2018-02-14T15:53:09.805Z,50.33
2018-02-14T15:55:37.625Z,52.23
2018-02-14T15:58:05.476Z,46.30
2018-02-14T16:00:33.326Z,43.60
2018-02-14T16:03:01.163Z,52.30
2018-02-14T16:05:29.090Z,55.73
2018-02-14T16:07:56.944Z,58.30
2018-02-14T16:10:24.846Z,55.37
2018-02-14T16:12:52.671Z,63.23
2018-02-14T16:15:20.534Z,61.73
2018-02-14T16:17:48.401Z,54.93
2018-02-14T16:20:16.228Z,64.73
2018-02-14T16:22:44.136Z,62.30
2018-02-14T16:25:11.971Z,71.83
2018-02-14T16:27:39.816Z,74.13
2018-02-14T16:30:07.708Z,65.23
2018-02-14T16:32:35.555Z,58.03
2018-02-14T16:35:03.476Z,66.90
2018-02-14T16:37:31.312Z,61.17
2018-02-14T16:39:59.160Z,67.00
2018-02-14T16:42:27.058Z,78.37
2018-02-14T16:44:54.944Z,62.13
2018-02-14T16:47:22.817Z,67.10
2018-02-14T16:49:50.715Z,73.10
2018-02-14T16:52:18.556Z,67.63
2018-02-14T16:54:46.419Z,72.90
2018-02-14T16:57:14.339Z,71.30
2018-02-14T16:59:42.326Z,74.17
2018-02-14T17:02:10.171Z,77.03
2018-02-14T17:04:38.072Z,74.20
2018-02-14T17:07:05.916Z,71.20
2018-02-14T17:09:33.807Z,63.13
2018-02-14T17:12:01.678Z,77.27
2018-02-14T17:14:29.546Z,75.07
2018-02-14T17:16:57.403Z,81.63
2018-02-14T17:19:25.297Z,91.03
2018-02-14T17:21:53.139Z,87.33
2018-02-14T17:24:21.017Z,78.40
2018-02-14T17:26:48.943Z,85.37
2018-02-14T17:29:16.796Z,91.00
2018-02-14T17:31:44.699Z,80.90
2018-02-14T17:34:12.642Z,84.73
2018-02-14T17:36:40.492Z,82.43
2018-02-14T17:39:09.307Z,77.97
2018-02-14T17:41:37.242Z,85.03
2018-02-14T17:44:05.067Z,88.03
2018-02-14T17:46:32.916Z,90.50
2018-02-14T17:49:00.960Z,94.97
2018-02-14T17:51:28.830Z,89.27
2018-02-14T17:53:56.699Z,91.37
2018-02-14T17:56:24.591Z,96.77
2018-02-14T17:58:52.491Z,101.37
2018-02-14T18:01:20.391Z,95.53
2018-02-14T18:03:48.279Z,100.70
2018-02-14T18:06:16.159Z,110.03
2018-02-14T18:08:44.024Z,102.93
2018-02-14T18:11:12.232Z,108.60
2018-02-14T18:13:40.091Z,104.00
2018-02-14T18:16:11.985Z,108.37
2018-02-14T18:18:39.852Z,106.80
2018-02-14T18:21:07.704Z,112.47
2018-02-14T18:23:35.666Z,114.50
2018-02-14T18:26:03.531Z,108.47
2018-02-14T18:28:31.367Z,111.93
2018-02-14T18:30:59.267Z,104.93
2018-02-14T18:33:27.131Z,122.90
2018-02-14T18:35:55.056Z,117.53
2018-02-14T18:38:22.947Z,113.03
2018-02-14T18:40:50.796Z,111.53
2018-02-14T18:43:18.643Z,111.77
2018-02-14T18:45:46.561Z,117.90
2018-02-14T18:48:14.412Z,119.70
2018-02-14T18:50:42.272Z,110.47
2018-02-14T18:53:10.169Z,126.33
2018-02-14T18:55:38.017Z,124.20
2018-02-14T18:58:05.881Z,130.40
2018-02-14T19:00:33.798Z,118.63
2018-02-14T19:03:01.656Z,141.10
2018-02-14T19:05:29.509Z,120.50
2018-02-14T19:07:57.437Z,132.63
2018-02-14T19:10:25.289Z,119.33
2018-02-14T19:12:53.679Z,123.50
2018-02-14T19:15:21.585Z,129.30
2018-02-14T19:17:49.458Z,129.00
2018-02-14T19:20:17.378Z,150.73
2018-02-14T19:22:45.250Z,163.57
2018-02-14T19:25:13.146Z,157.27
2018-02-14T19:27:41.003Z,159.50
2018-02-14T19:30:09.028Z,165.30
2018-02-14T19:32:36.900Z,170.27
2018-02-14T19:35:04.799Z,171.37
2018-02-14T19:37:32.674Z,160.70
2018-02-14T19:40:00.535Z,154.13
2018-02-14T19:42:28.383Z,162.93
2018-02-14T19:44:56.435Z,139.93
2018-02-14T19:47:24.332Z,163.87
2018-02-14T19:49:52.223Z,153.00
2018-02-14T19:52:20.106Z,145.53
2018-02-14T19:54:47.990Z,175.13
2018-02-14T19:57:15.867Z,152.63
2018-02-14T19:59:43.743Z,159.00
2018-02-14T20:02:11.660Z,159.13
2018-02-14T20:04:39.545Z,152.03
2018-02-14T20:07:07.443Z,159.53
2018-02-14T20:09:35.332Z,172.57
2018-02-14T20:12:03.191Z,138.03
2018-02-14T20:14:31.095Z,159.70
2018-02-14T20:16:58.954Z,95.10
2018-02-14T20:19:26.805Z,135.07
2018-02-14T20:21:54.683Z,141.37
2018-02-14T20:24:23.168Z,153.50
2018-02-14T20:26:51.044Z,191.33
2018-02-14T20:29:18.940Z,138.93
2018-02-14T20:31:46.800Z,126.60
2018-02-14T20:34:14.656Z,198.10
2018-02-14T20:36:42.546Z,123.83
2018-02-14T20:39:10.585Z,153.93
2018-02-14T20:41:38.466Z,116.00
2018-02-14T20:44:06.355Z,121.63
2018-02-14T20:46:34.272Z,129.03
2018-02-14T20:49:02.236Z,137.73
2018-02-14T20:51:30.108Z,126.27
2018-02-14T20:53:58.143Z,178.30
2018-02-14T20:56:26.017Z,131.47
2018-02-14T20:58:53.907Z,121.10
2018-02-14T21:01:21.795Z,113.40
2018-02-14T21:03:49.752Z,103.27
2018-02-14T21:06:17.682Z,123.67
2018-02-14T21:08:45.566Z,120.17
2018-02-14T21:11:13.483Z,112.63
2018-02-14T21:13:41.354Z,141.40
2018-02-14T21:16:09.289Z,160.07
2018-02-14T21:18:37.163Z,127.60
2018-02-14T21:21:05.110Z,120.30
2018-02-14T21:23:33.011Z,141.53
2018-02-14T21:26:00.903Z,123.43
2018-02-14T21:28:30.297Z,123.53
2018-02-14T21:30:58.223Z,139.20
2018-02-14T21:33:26.123Z,106.60
2018-02-14T21:35:54.036Z,115.90
2018-02-14T21:38:21.923Z,138.87
2018-02-14T21:40:49.794Z,112.23
2018-02-14T21:43:17.755Z,140.07
2018-02-14T21:45:45.626Z,121.47
2018-02-14T21:48:13.523Z,128.13
2018-02-14T21:50:41.419Z,137.70
2018-02-14T21:53:09.317Z,116.37
2018-02-14T21:55:37.185Z,109.73
2018-02-14T21:58:05.122Z,117.37
2018-02-14T22:00:33.029Z,103.50
2018-02-14T22:03:00.959Z,110.67
2018-02-14T22:05:28.904Z,112.77
2018-02-14T22:07:56.791Z,118.90
2018-02-14T22:10:24.699Z,106.93
2018-02-14T22:12:52.598Z,114.60
2018-02-14T22:15:20.471Z,98.73
2018-02-14T22:17:48.334Z,97.27
2018-02-14T22:20:16.249Z,100.77
2018-02-14T22:22:44.152Z,98.53
2018-02-14T22:25:12.053Z,111.93
2018-02-14T22:27:40.016Z,116.57
2018-02-14T22:30:07.924Z,113.10
2018-02-14T22:32:35.822Z,126.77
2018-02-14T22:35:03.722Z,135.40
2018-02-14T22:37:31.634Z,127.63
2018-02-14T22:39:59.537Z,122.70
2018-02-14T22:42:27.470Z,117.20
2018-02-14T22:44:55.389Z,87.47
2018-02-14T22:47:23.306Z,84.30
2018-02-14T22:49:51.227Z,84.17
2018-02-14T22:52:19.183Z,77.87
2018-02-14T22:54:47.050Z,88.57
2018-02-14T22:57:15.095Z,79.20
2018-02-14T22:59:42.999Z,83.63
2018-02-14T23:02:10.870Z,75.83
2018-02-14T23:04:38.789Z,75.33
2018-02-14T23:07:06.697Z,64.20
2018-02-14T23:09:34.622Z,72.23
2018-02-14T23:12:03.332Z,70.70
2018-02-14T23:14:31.225Z,79.80
2018-02-14T23:16:59.118Z,67.00
2018-02-14T23:19:27.039Z,66.13
2018-02-14T23:21:54.960Z,50.27
2018-02-14T23:24:22.957Z,67.40
2018-02-14T23:26:50.995Z,86.10
2018-02-14T23:29:18.922Z,58.90
2018-02-14T23:31:46.859Z,88.10
2018-02-14T23:34:14.863Z,84.80
2018-02-14T23:36:42.822Z,87.00
2018-02-14T23:39:10.694Z,87.70
2018-02-14T23:41:38.610Z,82.03
2018-02-14T23:44:06.470Z,86.60
2018-02-14T23:46:34.334Z,61.03
2018-02-14T23:49:02.242Z,51.43
2018-02-14T23:51:30.111Z,82.63
2018-02-14T23:53:57.971Z,89.97
2018-02-14T23:56:25.912Z,71.20
2018-02-14T23:58:53.851Z,95.90
